Time,TemperatureF,DewpointF,PressureIn,WindDirection,WindDirectionDegrees,WindSpeedMPH,WindSpeedGustMPH,Humidity,HourlyPrecipIn,Conditions,Clouds,dailyrainin,SoftwareType,DateUTC
2013-01-07 00:03:00,14.6,11.7,30.36,West,269,2.0,3.0,88,0.00,,---,0.00,VWS V14.00,2013-01-07 06:03:00,
2013-01-07 00:08:00,14.4,11.5,30.36,West,269,0.0,1.0,88,0.00,,---,0.00,VWS V14.00,2013-01-07 06:08:00,
2013-01-07 00:13:00,14.3,11.4,30.36,West,269,1.0,1.0,88,0.00,,---,0.00,VWS V14.00,2013-01-07 06:13:00,
2013-01-07 00:18:00,14.3,11.4,30.36,West,269,0.0,0.0,88,0.00,,---,0.00,VWS V14.00,2013-01-07 06:18:00,
2013-01-07 00:23:00,14.4,11.8,30.36,West,269,0.0,0.0,89,0.00,,---,0.00,VWS V14.00,2013-01-07 06:23:00,
2013-01-07 00:28:00,14.6,11.9,30.36,West,269,3.0,3.0,89,0.00,,---,0.00,VWS V14.00,2013-01-07 06:28:00,
2013-01-07 00:33:00,14.6,11.9,30.35,West,269,2.0,3.0,89,0.00,,---,0.00,VWS V14.00,2013-01-07 06:33:00,
2013-01-07 00:38:00,14.9,12.2,30.35,West,269,1.0,1.0,89,0.00,,---,0.00,VWS V14.00,2013-01-07 06:38:00,
2013-01-07 00:43:00,15.1,12.4,30.35,West,269,2.0,2.0,89,0.00,,---,0.00,VWS V14.00,2013-01-07 06:43:00,
2013-01-07 00:48:00,15.2,12.6,30.35,West,269,3.0,3.0,89,0.00,,---,0.00,VWS V14.00,2013-01-07 06:48:00,
2013-01-07 00:53:00,15.1,12.4,30.35,West,269,2.0,3.0,89,0.00,,---,0.00,VWS V14.00,2013-01-07 06:53:00,
2013-01-07 00:59:00,14.8,12.1,30.35,West,269,4.0,4.0,89,0.00,,---,0.00,VWS V14.00,2013-01-07 06:59:00,
2013-01-07 01:04:00,14.6,11.9,30.35,West,269,3.0,4.0,89,0.00,,---,0.00,VWS V14.00,2013-01-07 07:04:00,
2013-01-07 01:09:00,14.6,11.9,30.35,West,269,3.0,4.0,89,0.00,,---,0.00,VWS V14.00,2013-01-07 07:09:00,
2013-01-07 01:14:00,14.8,12.1,30.35,West,269,3.0,4.0,89,0.00,,---,0.00,VWS V14.00,2013-01-07 07:14:00,
2013-01-07 01:19:00,14.9,12.2,30.36,West,266,4.0,5.0,89,0.00,,---,0.00,VWS V14.00,2013-01-07 07:19:00,
2013-01-07 01:24:00,14.8,12.1,30.36,West,265,2.0,4.0,89,0.00,,---,0.00,VWS V14.00,2013-01-07 07:24:00,
2013-01-07 01:29:00,14.6,11.9,30.36,West,265,3.0,4.0,89,0.00,,---,0.00,VWS V14.00,2013-01-07 07:29:00,
2013-01-07 01:34:00,14.6,11.9,30.36,West,265,3.0,3.0,89,0.00,,---,0.00,VWS V14.00,2013-01-07 07:34:00,
2013-01-07 01:39:00,14.8,12.1,30.36,West,265,3.0,4.0,89,0.00,,---,0.00,VWS V14.00,2013-01-07 07:39:00,
2013-01-07 01:44:00,14.8,12.1,30.36,West,265,4.0,4.0,89,0.00,,---,0.00,VWS V14.00,2013-01-07 07:44:00,
2013-01-07 01:49:00,14.9,12.2,30.36,West,263,5.0,5.0,89,0.00,,---,0.00,VWS V14.00,2013-01-07 07:49:00,
2013-01-07 01:54:00,15.2,12.8,30.36,WSW,258,4.0,5.0,90,0.00,,---,0.00,VWS V14.00,2013-01-07 07:54:00,
2013-01-07 01:59:00,15.6,13.2,30.36,WSW,258,3.0,4.0,90,0.00,,---,0.00,VWS V14.00,2013-01-07 07:59:00,
2013-01-07 02:04:00,15.7,13.3,30.36,WSW,258,3.0,3.0,90,0.00,,---,0.00,VWS V14.00,2013-01-07 08:04:00,
2013-01-07 02:09:00,15.9,13.5,30.36,WSW,257,2.0,4.0,90,0.00,,---,0.00,VWS V14.00,2013-01-07 08:09:00,
2013-01-07 02:14:00,16.4,14.0,30.36,WSW,257,3.0,4.0,90,0.00,,---,0.00,VWS V14.00,2013-01-07 08:14:00,
2013-01-07 02:20:00,16.1,13.4,30.36,WSW,257,2.0,3.0,89,0.00,,---,0.00,VWS V14.00,2013-01-07 08:20:00,
2013-01-07 02:25:00,16.2,13.8,30.36,WSW,257,3.0,4.0,90,0.00,,---,0.00,VWS V14.00,2013-01-07 08:25:00,
2013-01-07 02:30:00,16.5,14.1,30.36,WSW,257,2.0,3.0,90,0.00,,---,0.00,VWS V14.00,2013-01-07 08:30:00,
2013-01-07 02:35:00,16.4,13.7,30.37,WSW,257,3.0,4.0,89,0.00,,---,0.00,VWS V14.00,2013-01-07 08:35:00,
2013-01-07 02:40:00,15.7,13.0,30.37,WSW,257,4.0,4.0,89,0.00,,---,0.00,VWS V14.00,2013-01-07 08:40:00,
2013-01-07 02:45:00,15.2,12.6,30.37,WSW,257,3.0,4.0,89,0.00,,---,0.00,VWS V14.00,2013-01-07 08:45:00,
2013-01-07 02:50:00,14.9,12.2,30.37,WSW,257,2.0,3.0,89,0.00,,---,0.00,VWS V14.00,2013-01-07 08:50:00,
2013-01-07 02:55:00,14.6,11.9,30.37,WSW,257,3.0,3.0,89,0.00,,---,0.00,VWS V14.00,2013-01-07 08:55:00,
2013-01-07 03:00:00,14.6,11.9,30.37,WSW,257,2.0,3.0,89,0.00,,---,0.00,VWS V14.00,2013-01-07 09:00:00,
2013-01-07 03:05:00,14.6,11.9,30.37,WSW,257,2.0,3.0,89,0.00,,---,0.00,VWS V14.00,2013-01-07 09:05:00,
2013-01-07 03:10:00,14.6,11.9,30.37,WSW,257,3.0,3.0,89,0.00,,---,0.00,VWS V14.00,2013-01-07 09:10:00,
2013-01-07 03:15:00,14.8,12.1,30.37,WSW,257,3.0,3.0,89,0.00,,---,0.00,VWS V14.00,2013-01-07 09:15:00,
2013-01-07 03:21:00,14.9,12.2,30.37,WSW,257,2.0,3.0,89,0.00,,---,0.00,VWS V14.00,2013-01-07 09:21:00,
2013-01-07 03:26:00,14.9,12.2,30.37,WSW,257,4.0,4.0,89,0.00,,---,0.00,VWS V14.00,2013-01-07 09:26:00,
2013-01-07 03:31:00,14.9,12.2,30.37,WSW,257,3.0,4.0,89,0.00,,---,0.00,VWS V14.00,2013-01-07 09:31:00,
2013-01-07 03:36:00,14.9,12.2,30.37,WSW,257,3.0,3.0,89,0.00,,---,0.00,VWS V14.00,2013-01-07 09:36:00,
2013-01-07 03:41:00,15.1,12.4,30.37,WSW,257,2.0,3.0,89,0.00,,---,0.00,VWS V14.00,2013-01-07 09:41:00,
2013-01-07 03:46:00,15.4,12.7,30.37,WSW,257,3.0,4.0,89,0.00,,---,0.00,VWS V14.00,2013-01-07 09:46:00,
2013-01-07 03:51:00,15.4,12.7,30.37,WSW,257,3.0,4.0,89,0.00,,---,0.00,VWS V14.00,2013-01-07 09:51:00,
2013-01-07 03:56:00,15.2,12.3,30.37,WSW,257,2.0,4.0,88,0.00,,---,0.00,VWS V14.00,2013-01-07 09:56:00,
2013-01-07 04:01:00,14.9,12.0,30.37,WSW,257,3.0,3.0,88,0.00,,---,0.00,VWS V14.00,2013-01-07 10:01:00,
2013-01-07 04:06:00,14.9,12.0,30.37,WSW,257,4.0,4.0,88,0.00,,---,0.00,VWS V14.00,2013-01-07 10:06:00,
2013-01-07 04:11:00,14.6,11.7,30.37,WSW,257,3.0,5.0,88,0.00,,---,0.00,VWS V14.00,2013-01-07 10:11:00,
2013-01-07 04:16:00,14.8,11.9,30.37,WSW,257,3.0,4.0,88,0.00,,---,0.00,VWS V14.00,2013-01-07 10:16:00,
2013-01-07 04:21:00,15.4,12.7,30.37,WSW,255,4.0,6.0,89,0.00,,---,0.00,VWS V14.00,2013-01-07 10:21:00,
2013-01-07 04:26:00,16.9,14.5,30.37,SW,234,6.0,6.0,90,0.00,,---,0.00,VWS V14.00,2013-01-07 10:26:00,
2013-01-07 04:32:00,17.5,15.1,30.37,SSW,198,5.0,7.0,90,0.00,,---,0.00,VWS V14.00,2013-01-07 10:32:00,
2013-01-07 04:37:00,18.0,15.3,30.37,South,191,6.0,6.0,89,0.00,,---,0.00,VWS V14.00,2013-01-07 10:37:00,
2013-01-07 04:42:00,17.8,15.1,30.37,South,189,4.0,5.0,89,0.00,,---,0.00,VWS V14.00,2013-01-07 10:42:00,
2013-01-07 04:47:00,17.2,14.3,30.37,South,189,4.0,5.0,88,0.00,,---,0.00,VWS V14.00,2013-01-07 10:47:00,
2013-01-07 04:52:00,16.7,13.5,30.37,South,189,4.0,5.0,87,0.00,,---,0.00,VWS V14.00,2013-01-07 10:52:00,
2013-01-07 04:57:00,16.2,13.0,30.37,South,189,4.0,5.0,87,0.00,,---,0.00,VWS V14.00,2013-01-07 10:57:00,
2013-01-07 05:02:00,16.1,12.9,30.37,South,189,2.0,5.0,87,0.00,,---,0.00,VWS V14.00,2013-01-07 11:02:00,
2013-01-07 05:07:00,16.1,13.2,30.37,South,189,4.0,4.0,88,0.00,,---,0.00,VWS V14.00,2013-01-07 11:07:00,
2013-01-07 05:12:00,16.5,13.8,30.37,South,188,4.0,5.0,89,0.00,,---,0.00,VWS V14.00,2013-01-07 11:12:00,
2013-01-07 05:17:00,17.0,14.3,30.37,South,188,4.0,5.0,89,0.00,,---,0.00,VWS V14.00,2013-01-07 11:17:00,
2013-01-07 05:22:00,17.2,14.5,30.37,South,188,5.0,5.0,89,0.00,,---,0.00,VWS V14.00,2013-01-07 11:22:00,
2013-01-07 05:27:00,17.2,14.5,30.37,South,188,5.0,5.0,89,0.00,,---,0.00,VWS V14.00,2013-01-07 11:27:00,
2013-01-07 05:32:00,17.2,14.5,30.36,South,188,5.0,5.0,89,0.00,,---,0.00,VWS V14.00,2013-01-07 11:32:00,
2013-01-07 05:38:00,17.2,14.5,30.36,South,188,5.0,5.0,89,0.00,,---,0.00,VWS V14.00,2013-01-07 11:38:00,
2013-01-07 05:43:00,17.2,14.5,30.36,South,188,5.0,5.0,89,0.00,,---,0.00,VWS V14.00,2013-01-07 11:43:00,
2013-01-07 05:48:00,18.3,15.1,30.37,South,178,5.0,9.0,87,0.00,,---,0.00,VWS V14.00,2013-01-07 11:48:00,
2013-01-07 05:53:00,18.1,14.6,30.37,South,178,4.0,5.0,86,0.00,,---,0.00,VWS V14.00,2013-01-07 11:53:00,
2013-01-07 05:58:00,17.2,13.5,30.37,South,178,5.0,5.0,85,0.00,,---,0.00,VWS V14.00,2013-01-07 11:58:00,
2013-01-07 06:03:00,17.2,13.7,30.37,South,178,5.0,5.0,86,0.00,,---,0.00,VWS V14.00,2013-01-07 12:03:00,
2013-01-07 06:08:00,17.7,14.2,30.37,South,176,5.0,6.0,86,0.00,,---,0.00,VWS V14.00,2013-01-07 12:08:00,
2013-01-07 06:13:00,17.7,14.2,30.37,South,175,5.0,6.0,86,0.00,,---,0.00,VWS V14.00,2013-01-07 12:13:00,
2013-01-07 06:18:00,17.5,14.0,30.37,South,175,6.0,6.0,86,0.00,,---,0.00,VWS V14.00,2013-01-07 12:18:00,
2013-01-07 06:23:00,17.7,14.2,30.37,South,174,5.0,6.0,86,0.00,,---,0.00,VWS V14.00,2013-01-07 12:23:00,
2013-01-07 06:28:00,17.5,14.0,30.37,South,173,6.0,7.0,86,0.00,,---,0.00,VWS V14.00,2013-01-07 12:28:00,
2013-01-07 06:33:00,17.7,14.2,30.37,South,172,6.0,7.0,86,0.00,,---,0.00,VWS V14.00,2013-01-07 12:33:00,
2013-01-07 06:38:00,17.8,14.1,30.37,South,172,4.0,6.0,85,0.00,,---,0.00,VWS V14.00,2013-01-07 12:38:00,
2013-01-07 06:44:00,17.5,13.8,30.37,South,171,5.0,6.0,85,0.00,,---,0.00,VWS V14.00,2013-01-07 12:44:00,
2013-01-07 06:49:00,17.0,13.3,30.37,South,171,6.0,6.0,85,0.00,,---,0.00,VWS V14.00,2013-01-07 12:49:00,
2013-01-07 06:54:00,16.7,13.0,30.37,South,170,5.0,5.0,85,0.00,,---,0.00,VWS V14.00,2013-01-07 12:54:00,
2013-01-07 06:59:00,16.7,13.2,30.37,South,169,4.0,6.0,86,0.00,,---,0.00,VWS V14.00,2013-01-07 12:59:00,
2013-01-07 07:04:00,17.5,14.6,30.37,South,169,5.0,7.0,88,0.00,,---,0.00,VWS V14.00,2013-01-07 13:04:00,
2013-01-07 07:09:00,18.1,15.1,30.37,South,169,5.0,7.0,88,0.00,,---,0.00,VWS V14.00,2013-01-07 13:09:00,
2013-01-07 07:14:00,18.8,15.8,30.37,SSE,167,10.0,10.0,88,0.00,,---,0.00,VWS V14.00,2013-01-07 13:14:00,
2013-01-07 07:19:00,19.4,16.2,30.37,SSE,167,10.0,11.0,87,0.00,,---,0.00,VWS V14.00,2013-01-07 13:19:00,
2013-01-07 07:24:00,19.9,16.7,30.37,South,169,10.0,13.0,87,0.00,,---,0.00,VWS V14.00,2013-01-07 13:24:00,
2013-01-07 07:29:00,20.3,17.1,30.37,South,174,11.0,13.0,87,0.00,,---,0.00,VWS V14.00,2013-01-07 13:29:00,
2013-01-07 07:34:00,20.3,16.8,30.37,South,174,10.0,13.0,86,0.00,,---,0.00,VWS V14.00,2013-01-07 13:34:00,
2013-01-07 07:39:00,20.3,16.5,30.37,South,172,8.0,11.0,85,0.00,,---,0.00,VWS V14.00,2013-01-07 13:39:00,
2013-01-07 07:45:00,20.6,17.1,30.37,South,171,6.0,11.0,86,0.00,,---,0.00,VWS V14.00,2013-01-07 13:45:00,
2013-01-07 07:50:00,21.0,17.2,30.37,South,172,7.0,10.0,85,0.00,,---,0.00,VWS V14.00,2013-01-07 13:50:00,
2013-01-07 07:55:00,21.3,17.5,30.37,SSE,167,9.0,12.0,85,0.00,,---,0.00,VWS V14.00,2013-01-07 13:55:00,
2013-01-07 08:00:00,21.4,17.6,30.37,SSE,164,7.0,9.0,85,0.00,,---,0.00,VWS V14.00,2013-01-07 14:00:00,
2013-01-07 08:05:00,21.4,17.6,30.36,SSE,161,7.0,10.0,85,0.00,,---,0.00,VWS V14.00,2013-01-07 14:05:00,
2013-01-07 08:10:00,21.6,17.8,30.36,SSE,161,6.0,11.0,85,0.00,,---,0.00,VWS V14.00,2013-01-07 14:10:00,
2013-01-07 08:15:00,21.6,17.8,30.37,SSE,161,9.0,9.0,85,0.00,,---,0.00,VWS V14.00,2013-01-07 14:15:00,
2013-01-07 08:20:00,22.1,18.3,30.37,SSE,164,9.0,13.0,85,0.00,,---,0.00,VWS V14.00,2013-01-07 14:20:00,
2013-01-07 08:26:00,22.4,18.6,30.37,SSE,167,10.0,12.0,85,0.00,,---,0.00,VWS V14.00,2013-01-07 14:26:00,
2013-01-07 08:31:00,22.7,18.6,30.37,SSE,164,6.0,11.0,84,0.00,,---,0.00,VWS V14.00,2013-01-07 14:31:00,
2013-01-07 08:36:00,23.0,18.9,30.37,SSE,166,7.0,12.0,84,0.00,,---,0.00,VWS V14.00,2013-01-07 14:36:00,
2013-01-07 08:41:00,23.3,19.2,30.37,SSE,163,12.0,12.0,84,0.00,,---,0.00,VWS V14.00,2013-01-07 14:41:00,
2013-01-07 08:46:00,23.6,19.5,30.36,SSE,161,12.0,13.0,84,0.00,,---,0.00,VWS V14.00,2013-01-07 14:46:00,
2013-01-07 08:51:00,23.8,20.0,30.36,SSE,159,10.0,12.0,85,0.00,,---,0.00,VWS V14.00,2013-01-07 14:51:00,
2013-01-07 08:56:00,24.1,20.2,30.36,SSE,157,11.0,13.0,85,0.00,,---,0.00,VWS V14.00,2013-01-07 14:56:00,
2013-01-07 09:01:00,24.5,20.6,30.36,SSE,161,9.0,11.0,85,0.00,,---,0.00,VWS V14.00,2013-01-07 15:01:00,
2013-01-07 09:06:00,25.1,21.2,30.36,SSE,163,9.0,13.0,85,0.00,,---,0.00,VWS V14.00,2013-01-07 15:06:00,
2013-01-07 09:11:00,25.6,21.7,30.36,SSE,162,11.0,13.0,85,0.00,,---,0.00,VWS V14.00,2013-01-07 15:11:00,
2013-01-07 09:17:00,26.1,22.2,30.35,SSE,167,9.0,12.0,85,0.00,,---,0.00,VWS V14.00,2013-01-07 15:17:00,
2013-01-07 09:22:00,26.9,23.0,30.35,SSE,166,9.0,14.0,85,0.00,,---,0.00,VWS V14.00,2013-01-07 15:22:00,
2013-01-07 09:27:00,27.3,22.8,30.35,South,176,13.0,17.0,83,0.00,,---,0.00,VWS V14.00,2013-01-07 15:27:00,
2013-01-07 09:32:00,27.6,23.1,30.35,South,176,14.0,17.0,83,0.00,,---,0.00,VWS V14.00,2013-01-07 15:32:00,
2013-01-07 09:37:00,27.9,23.4,30.35,South,173,15.0,15.0,83,0.00,,---,0.00,VWS V14.00,2013-01-07 15:37:00,
2013-01-07 09:42:00,28.1,23.3,30.35,South,172,16.0,21.0,82,0.00,,---,0.00,VWS V14.00,2013-01-07 15:42:00,
2013-01-07 09:47:00,28.2,23.1,30.35,South,182,20.0,22.0,81,0.00,,---,0.00,VWS V14.00,2013-01-07 15:47:00,
2013-01-07 09:52:00,28.5,23.1,30.35,South,182,18.0,23.0,80,0.00,,---,0.00,VWS V14.00,2013-01-07 15:52:00,
2013-01-07 09:57:00,28.8,23.7,30.35,South,174,15.0,21.0,81,0.00,,---,0.00,VWS V14.00,2013-01-07 15:57:00,
2013-01-07 10:02:00,29.0,23.6,30.34,South,184,20.0,21.0,80,0.00,,---,0.00,VWS V14.00,2013-01-07 16:02:00,
2013-01-07 10:08:00,29.3,24.2,30.34,South,173,15.0,19.0,81,0.00,,---,0.00,VWS V14.00,2013-01-07 16:08:00,
2013-01-07 10:13:00,29.3,23.6,30.34,South,169,15.0,18.0,79,0.00,,---,0.00,VWS V14.00,2013-01-07 16:13:00,
2013-01-07 10:18:00,29.5,24.1,30.34,South,184,16.0,17.0,80,0.00,,---,0.00,VWS V14.00,2013-01-07 16:18:00,
2013-01-07 10:23:00,29.8,24.1,30.34,South,173,12.0,18.0,79,0.00,,---,0.00,VWS V14.00,2013-01-07 16:23:00,
2013-01-07 10:28:00,30.3,24.3,30.34,South,181,16.0,26.0,78,0.00,,---,0.00,VWS V14.00,2013-01-07 16:28:00,
2013-01-07 10:33:00,30.4,24.4,30.33,South,182,20.0,22.0,78,0.00,,---,0.00,VWS V14.00,2013-01-07 16:33:00,
2013-01-07 10:38:00,30.7,24.7,30.33,South,185,21.0,23.0,78,0.00,,---,0.00,VWS V14.00,2013-01-07 16:38:00,
2013-01-07 10:43:00,30.7,24.4,30.33,South,186,18.0,22.0,77,0.00,,---,0.00,VWS V14.00,2013-01-07 16:43:00,
2013-01-07 10:49:00,30.7,24.7,30.32,South,185,18.0,22.0,78,0.00,,---,0.00,VWS V14.00,2013-01-07 16:49:00,
2013-01-07 10:54:00,30.9,24.9,30.32,South,177,18.0,19.0,78,0.00,,---,0.00,VWS V14.00,2013-01-07 16:54:00,
2013-01-07 10:59:00,31.0,24.6,30.32,South,182,18.0,21.0,77,0.00,,---,0.00,VWS V14.00,2013-01-07 16:59:00,
2013-01-07 11:04:00,31.3,25.2,30.32,South,188,19.0,20.0,78,0.00,,---,0.00,VWS V14.00,2013-01-07 17:04:00,
2013-01-07 11:09:00,31.6,25.5,30.32,South,186,12.0,17.0,78,0.00,,---,0.00,VWS V14.00,2013-01-07 17:09:00,
2013-01-07 11:14:00,31.8,25.7,30.32,South,178,16.0,19.0,78,0.00,,---,0.00,VWS V14.00,2013-01-07 17:14:00,
2013-01-07 11:19:00,31.9,25.5,30.30,South,191,18.0,19.0,77,0.00,,---,0.00,VWS V14.00,2013-01-07 17:19:00,
2013-01-07 11:24:00,32.2,25.8,30.30,South,179,16.0,20.0,77,0.00,,---,0.00,VWS V14.00,2013-01-07 17:24:00,
2013-01-07 11:30:00,32.2,25.8,30.30,South,180,14.0,20.0,77,0.00,,---,0.00,VWS V14.00,2013-01-07 17:30:00,
2013-01-07 11:35:00,32.5,25.8,30.29,South,175,14.0,20.0,76,0.00,,---,0.00,VWS V14.00,2013-01-07 17:35:00,
2013-01-07 11:40:00,32.7,26.0,30.29,South,176,17.0,19.0,76,0.00,,---,0.00,VWS V14.00,2013-01-07 17:40:00,
2013-01-07 11:45:00,32.9,26.2,30.29,SSW,192,13.0,19.0,76,0.00,,---,0.00,VWS V14.00,2013-01-07 17:45:00,
2013-01-07 11:50:00,33.1,26.7,30.29,South,183,16.0,17.0,77,0.00,,---,0.00,VWS V14.00,2013-01-07 17:50:00,
2013-01-07 11:55:00,32.9,26.8,30.29,South,181,11.0,18.0,78,0.00,,---,0.00,VWS V14.00,2013-01-07 17:55:00,
2013-01-07 12:00:00,33.1,26.4,30.28,South,178,13.0,13.0,76,0.00,,---,0.00,VWS V14.00,2013-01-07 18:00:00,
2013-01-07 12:05:00,33.4,26.7,30.28,South,182,11.0,17.0,76,0.00,,---,0.00,VWS V14.00,2013-01-07 18:05:00,
2013-01-07 12:11:00,33.4,26.7,30.28,South,186,12.0,12.0,76,0.00,,---,0.00,VWS V14.00,2013-01-07 18:11:00,
2013-01-07 12:16:00,33.7,27.0,30.27,South,186,17.0,18.0,76,0.00,,---,0.00,VWS V14.00,2013-01-07 18:16:00,
2013-01-07 12:21:00,33.7,26.3,30.27,South,188,19.0,20.0,74,0.00,,---,0.00,VWS V14.00,2013-01-07 18:21:00,
2013-01-07 12:26:00,34.0,26.9,30.27,South,188,16.0,23.0,75,0.00,,---,0.00,VWS V14.00,2013-01-07 18:26:00,
2013-01-07 12:31:00,33.7,26.6,30.27,SSW,200,22.0,22.0,75,0.00,,---,0.00,VWS V14.00,2013-01-07 18:31:00,
2013-01-07 12:36:00,33.7,26.6,30.27,South,189,13.0,23.0,75,0.00,,---,0.00,VWS V14.00,2013-01-07 18:36:00,
2013-01-07 12:41:00,33.8,26.7,30.27,South,183,20.0,23.0,75,0.00,,---,0.00,VWS V14.00,2013-01-07 18:41:00,
2013-01-07 12:46:00,33.8,26.4,30.26,South,191,14.0,23.0,74,0.00,,---,0.00,VWS V14.00,2013-01-07 18:46:00,
2013-01-07 12:51:00,34.0,26.6,30.26,SSW,194,20.0,24.0,74,0.00,,---,0.00,VWS V14.00,2013-01-07 18:51:00,
2013-01-07 12:57:00,34.1,26.7,30.26,South,171,19.0,23.0,74,0.00,,---,0.00,VWS V14.00,2013-01-07 18:57:00,
2013-01-07 13:02:00,34.3,26.9,30.25,South,185,16.0,21.0,74,0.00,,---,0.00,VWS V14.00,2013-01-07 19:02:00,
2013-01-07 13:07:00,34.3,26.9,30.25,South,180,13.0,13.0,74,0.00,,---,0.00,VWS V14.00,2013-01-07 19:07:00,
2013-01-07 13:12:00,34.4,26.7,30.25,South,178,20.0,21.0,73,0.00,,---,0.00,VWS V14.00,2013-01-07 19:12:00,
2013-01-07 13:17:00,34.6,27.2,30.24,South,174,15.0,18.0,74,0.00,,---,0.00,VWS V14.00,2013-01-07 19:17:00,
2013-01-07 13:22:00,34.7,27.3,30.24,South,184,19.0,21.0,74,0.00,,---,0.00,VWS V14.00,2013-01-07 19:22:00,
2013-01-07 13:27:00,35.0,27.6,30.24,South,188,15.0,20.0,74,0.00,,---,0.00,VWS V14.00,2013-01-07 19:27:00,
2013-01-07 13:32:00,35.0,27.2,30.23,South,184,19.0,19.0,73,0.00,,---,0.00,VWS V14.00,2013-01-07 19:32:00,
2013-01-07 13:37:00,35.2,27.4,30.23,South,178,15.0,19.0,73,0.00,,---,0.00,VWS V14.00,2013-01-07 19:37:00,
2013-01-07 13:43:00,35.2,27.8,30.23,South,171,14.0,19.0,74,0.00,,---,0.00,VWS V14.00,2013-01-07 19:43:00,
2013-01-07 13:48:00,35.3,27.9,30.22,South,191,20.0,20.0,74,0.00,,---,0.00,VWS V14.00,2013-01-07 19:48:00,
2013-01-07 13:53:00,35.5,28.0,30.22,SSE,167,14.0,18.0,74,0.00,,---,0.00,VWS V14.00,2013-01-07 19:53:00,
2013-01-07 13:58:00,35.5,28.0,30.22,South,182,16.0,17.0,74,0.00,,---,0.00,VWS V14.00,2013-01-07 19:58:00,
2013-01-07 14:03:00,35.8,28.3,30.22,South,169,13.0,18.0,74,0.00,,---,0.00,VWS V14.00,2013-01-07 20:03:00,
2013-01-07 14:08:00,35.8,28.0,30.22,South,176,18.0,19.0,73,0.00,,---,0.00,VWS V14.00,2013-01-07 20:08:00,
2013-01-07 14:13:00,36.0,28.2,30.22,South,175,15.0,19.0,73,0.00,,---,0.00,VWS V14.00,2013-01-07 20:13:00,
2013-01-07 14:18:00,36.0,27.9,30.21,South,180,15.0,19.0,72,0.00,,---,0.00,VWS V14.00,2013-01-07 20:18:00,
2013-01-07 14:19:00,36.0,28.2,30.21,South,183,21.0,21.0,73,0.00,,---,0.00,VWS V14.00,2013-01-07 20:19:00,
2013-01-07 14:24:00,36.0,27.9,30.21,South,182,12.0,12.0,72,0.00,,---,0.00,VWS V14.00,2013-01-07 20:24:00,
2013-01-07 14:29:00,35.9,28.1,30.21,South,174,16.0,19.0,73,0.00,,---,0.00,VWS V14.00,2013-01-07 20:29:00,
2013-01-07 14:34:00,36.0,27.9,30.20,South,169,18.0,20.0,72,0.00,,---,0.00,VWS V14.00,2013-01-07 20:34:00,
2013-01-07 14:39:00,36.2,28.1,30.20,South,190,23.0,23.0,72,0.00,,---,0.00,VWS V14.00,2013-01-07 20:39:00,
2013-01-07 14:44:00,36.5,28.0,30.20,South,184,14.0,18.0,71,0.00,,---,0.00,VWS V14.00,2013-01-07 20:44:00,
2013-01-07 14:50:00,36.3,28.5,30.20,South,173,17.0,17.0,73,0.00,,---,0.00,VWS V14.00,2013-01-07 20:50:00,
2013-01-07 14:55:00,36.2,28.1,30.20,South,178,15.0,20.0,72,0.00,,---,0.00,VWS V14.00,2013-01-07 20:55:00,
2013-01-07 15:00:00,36.3,28.1,30.20,South,173,14.0,14.0,72,0.00,,---,0.00,VWS V14.00,2013-01-07 21:00:00,
2013-01-07 15:05:00,36.2,27.7,30.19,South,177,20.0,21.0,71,0.00,,---,0.00,VWS V14.00,2013-01-07 21:05:00,
2013-01-07 15:10:00,36.2,27.7,30.19,South,175,13.0,17.0,71,0.00,,---,0.00,VWS V14.00,2013-01-07 21:10:00,
2013-01-07 15:15:00,36.2,27.7,30.20,South,178,21.0,21.0,71,0.00,,---,0.00,VWS V14.00,2013-01-07 21:15:00,
2013-01-07 15:20:00,36.2,27.7,30.20,South,178,13.0,15.0,71,0.00,,---,0.00,VWS V14.00,2013-01-07 21:20:00,
2013-01-07 15:25:00,36.3,27.8,30.20,South,181,14.0,14.0,71,0.00,,---,0.00,VWS V14.00,2013-01-07 21:25:00,
2013-01-07 15:30:00,36.3,27.8,30.20,South,180,10.0,13.0,71,0.00,,---,0.00,VWS V14.00,2013-01-07 21:30:00,
2013-01-07 15:35:00,35.9,27.4,30.20,South,188,12.0,18.0,71,0.00,,---,0.00,VWS V14.00,2013-01-07 21:35:00,
2013-01-07 15:40:00,35.8,27.0,30.20,SSE,167,13.0,14.0,70,0.00,,---,0.00,VWS V14.00,2013-01-07 21:40:00,
2013-01-07 15:46:00,35.6,27.1,30.20,South,178,16.0,16.0,71,0.00,,---,0.00,VWS V14.00,2013-01-07 21:46:00,
2013-01-07 15:51:00,35.6,27.1,30.20,South,178,16.0,16.0,71,0.00,,---,0.00,VWS V14.00,2013-01-07 21:51:00,
2013-01-07 15:56:00,35.6,27.1,30.20,South,178,16.0,16.0,71,0.00,,---,0.00,VWS V14.00,2013-01-07 21:56:00,
2013-01-07 16:01:00,35.6,27.1,30.21,South,178,16.0,16.0,71,0.00,,---,0.00,VWS V14.00,2013-01-07 22:01:00,
2013-01-07 16:06:00,35.6,27.1,30.21,South,178,16.0,16.0,71,0.00,,---,0.00,VWS V14.00,2013-01-07 22:06:00,
2013-01-07 16:11:00,35.2,26.8,30.21,SSE,162,11.0,14.0,71,0.00,,---,0.00,VWS V14.00,2013-01-07 22:11:00,
2013-01-07 16:16:00,34.9,26.5,30.17,SSE,161,10.0,14.0,71,0.00,,---,0.00,VWS V14.00,2013-01-07 22:16:00,
2013-01-07 16:21:00,34.7,26.6,30.17,SSE,166,10.0,18.0,72,0.00,,---,0.00,VWS V14.00,2013-01-07 22:21:00,
2013-01-07 16:26:00,34.7,26.3,30.17,South,172,11.0,15.0,71,0.00,,---,0.00,VWS V14.00,2013-01-07 22:26:00,
2013-01-07 16:31:00,34.1,26.7,30.18,South,172,6.0,11.0,74,0.00,,---,0.00,VWS V14.00,2013-01-07 22:31:00,
2013-01-07 16:36:00,33.8,26.4,30.18,South,173,7.0,12.0,74,0.00,,---,0.00,VWS V14.00,2013-01-07 22:36:00,
2013-01-07 16:41:00,33.7,26.3,30.18,South,173,11.0,12.0,74,0.00,,---,0.00,VWS V14.00,2013-01-07 22:41:00,
2013-01-07 16:46:00,33.5,26.1,30.19,South,175,8.0,13.0,74,0.00,,---,0.00,VWS V14.00,2013-01-07 22:46:00,
2013-01-07 16:51:00,33.5,26.1,30.19,South,175,6.0,10.0,74,0.00,,---,0.00,VWS V14.00,2013-01-07 22:51:00,
2013-01-07 16:57:00,33.4,26.0,30.19,South,173,7.0,10.0,74,0.00,,---,0.00,VWS V14.00,2013-01-07 22:57:00,
2013-01-07 17:02:00,33.1,26.0,30.18,South,173,6.0,9.0,75,0.00,,---,0.00,VWS V14.00,2013-01-07 23:02:00,
2013-01-07 17:07:00,32.8,26.1,30.18,South,173,5.0,7.0,76,0.00,,---,0.00,VWS V14.00,2013-01-07 23:07:00,
2013-01-07 17:12:00,32.7,26.3,30.18,South,173,4.0,6.0,77,0.00,,---,0.00,VWS V14.00,2013-01-07 23:12:00,
2013-01-07 17:17:00,32.5,26.4,30.18,South,173,2.0,5.0,78,0.00,,---,0.00,VWS V14.00,2013-01-07 23:17:00,
2013-01-07 17:22:00,32.2,26.1,30.18,South,173,3.0,4.0,78,0.00,,---,0.00,VWS V14.00,2013-01-07 23:22:00,
2013-01-07 17:27:00,31.8,26.0,30.18,South,173,5.0,6.0,79,0.00,,---,0.00,VWS V14.00,2013-01-07 23:27:00,
2013-01-07 17:32:00,31.6,26.1,30.18,South,173,3.0,6.0,80,0.00,,---,0.00,VWS V14.00,2013-01-07 23:32:00,
2013-01-07 17:37:00,31.8,26.4,30.18,South,173,3.0,5.0,80,0.00,,---,0.00,VWS V14.00,2013-01-07 23:37:00,
2013-01-07 17:42:00,31.6,26.1,30.18,South,173,6.0,10.0,80,0.00,,---,0.00,VWS V14.00,2013-01-07 23:42:00,
2013-01-07 17:47:00,31.8,26.0,30.18,South,173,3.0,6.0,79,0.00,,---,0.00,VWS V14.00,2013-01-07 23:47:00,
2013-01-07 17:52:00,31.6,25.9,30.18,South,173,5.0,6.0,79,0.00,,---,0.00,VWS V14.00,2013-01-07 23:52:00,
2013-01-07 17:58:00,31.5,25.8,30.18,South,173,6.0,7.0,79,0.00,,---,0.00,VWS V14.00,2013-01-07 23:58:00,
2013-01-07 18:03:00,31.5,25.8,30.18,South,173,9.0,11.0,79,0.00,,---,0.00,VWS V14.00,2013-01-08 00:03:00,
2013-01-07 18:08:00,31.8,25.7,30.18,South,173,10.0,10.0,78,0.00,,---,0.00,VWS V14.00,2013-01-08 00:08:00,
2013-01-07 18:13:00,31.5,26.0,30.18,SSE,154,10.0,12.0,80,0.00,,---,0.00,VWS V14.00,2013-01-08 00:13:00,
2013-01-07 18:18:00,31.2,26.1,30.16,SSE,154,7.0,11.0,81,0.00,,---,0.00,VWS V14.00,2013-01-08 00:18:00,
2013-01-07 18:23:00,31.2,26.4,30.16,SSE,154,5.0,10.0,82,0.00,,---,0.00,VWS V14.00,2013-01-08 00:23:00,
2013-01-07 18:28:00,31.2,26.4,30.16,SSE,154,6.0,11.0,82,0.00,,---,0.00,VWS V14.00,2013-01-08 00:28:00,
2013-01-07 18:33:00,31.3,26.8,30.16,SSE,155,6.0,11.0,83,0.00,,---,0.00,VWS V14.00,2013-01-08 00:33:00,
2013-01-07 18:38:00,31.3,26.8,30.16,SSE,159,7.0,12.0,83,0.00,,---,0.00,VWS V14.00,2013-01-08 00:38:00,
2013-01-07 18:43:00,31.2,26.6,30.16,SSE,161,7.0,10.0,83,0.00,,---,0.00,VWS V14.00,2013-01-08 00:43:00,
2013-01-07 18:48:00,31.3,26.8,30.17,SSE,164,6.0,9.0,83,0.00,,---,0.00,VWS V14.00,2013-01-08 00:48:00,
2013-01-07 18:54:00,31.2,26.6,30.17,SSE,164,9.0,9.0,83,0.00,,---,0.00,VWS V14.00,2013-01-08 00:54:00,
2013-01-07 18:59:00,30.9,26.4,30.17,SSE,164,4.0,9.0,83,0.00,,---,0.00,VWS V14.00,2013-01-08 00:59:00,
2013-01-07 19:04:00,30.7,26.2,30.17,SSE,164,9.0,9.0,83,0.00,,---,0.00,VWS V14.00,2013-01-08 01:04:00,
2013-01-07 19:09:00,30.7,26.5,30.17,SSE,164,6.0,11.0,84,0.00,,---,0.00,VWS V14.00,2013-01-08 01:09:00,
2013-01-07 19:14:00,30.6,26.4,30.17,SSE,164,7.0,11.0,84,0.00,,---,0.00,VWS V14.00,2013-01-08 01:14:00,
2013-01-07 19:19:00,30.6,26.1,30.16,SSE,164,5.0,5.0,83,0.00,,---,0.00,VWS V14.00,2013-01-08 01:19:00,
2013-01-07 19:24:00,30.4,25.9,30.16,SSE,164,6.0,7.0,83,0.00,,---,0.00,VWS V14.00,2013-01-08 01:24:00,
2013-01-07 19:29:00,30.6,26.1,30.16,SSE,164,5.0,9.0,83,0.00,,---,0.00,VWS V14.00,2013-01-08 01:29:00,
2013-01-07 19:34:00,30.6,25.8,30.15,SSE,165,6.0,9.0,82,0.00,,---,0.00,VWS V14.00,2013-01-08 01:34:00,
2013-01-07 19:39:00,30.7,25.6,30.15,SSE,165,9.0,10.0,81,0.00,,---,0.00,VWS V14.00,2013-01-08 01:39:00,
2013-01-07 19:44:00,30.7,25.6,30.15,SSE,165,10.0,12.0,81,0.00,,---,0.00,VWS V14.00,2013-01-08 01:44:00,
2013-01-07 19:49:00,30.6,25.5,30.15,SSE,165,7.0,11.0,81,0.00,,---,0.00,VWS V14.00,2013-01-08 01:49:00,
2013-01-07 19:54:00,30.6,25.5,30.15,SSE,166,7.0,10.0,81,0.00,,---,0.00,VWS V14.00,2013-01-08 01:54:00,
2013-01-07 20:00:00,30.6,25.5,30.15,SSE,166,6.0,6.0,81,0.00,,---,0.00,VWS V14.00,2013-01-08 02:00:00,
2013-01-07 20:05:00,30.4,25.3,30.16,SSE,166,5.0,7.0,81,0.00,,---,0.00,VWS V14.00,2013-01-08 02:05:00,
2013-01-07 20:10:00,30.3,25.2,30.16,SSE,166,4.0,11.0,81,0.00,,---,0.00,VWS V14.00,2013-01-08 02:10:00,
2013-01-07 20:15:00,30.3,25.2,30.16,SSE,166,6.0,6.0,81,0.00,,---,0.00,VWS V14.00,2013-01-08 02:15:00,
2013-01-07 20:20:00,30.6,25.5,30.15,SSE,166,4.0,11.0,81,0.00,,---,0.00,VWS V14.00,2013-01-08 02:20:00,
2013-01-07 20:25:00,30.6,25.2,30.15,SSE,166,9.0,9.0,80,0.00,,---,0.00,VWS V14.00,2013-01-08 02:25:00,
2013-01-07 20:30:00,30.9,25.5,30.15,South,170,12.0,13.0,80,0.00,,---,0.00,VWS V14.00,2013-01-08 02:30:00,
2013-01-07 20:35:00,31.0,25.3,30.15,South,172,12.0,13.0,79,0.00,,---,0.00,VWS V14.00,2013-01-08 02:35:00,
2013-01-07 20:40:00,31.0,25.3,30.15,South,172,12.0,13.0,79,0.00,,---,0.00,VWS V14.00,2013-01-08 02:40:00,
2013-01-07 20:45:00,31.2,25.1,30.15,South,173,11.0,13.0,78,0.00,,---,0.00,VWS V14.00,2013-01-08 02:45:00,
2013-01-07 20:50:00,31.2,25.1,30.15,South,172,12.0,12.0,78,0.00,,---,0.00,VWS V14.00,2013-01-08 02:50:00,
2013-01-07 20:55:00,31.2,25.1,30.15,South,171,7.0,13.0,78,0.00,,---,0.00,VWS V14.00,2013-01-08 02:55:00,
2013-01-07 21:00:00,31.0,25.0,30.15,South,172,11.0,11.0,78,0.00,,---,0.00,VWS V14.00,2013-01-08 03:00:00,
2013-01-07 21:05:00,31.0,25.0,30.15,South,172,12.0,14.0,78,0.00,,---,0.00,VWS V14.00,2013-01-08 03:05:00,
2013-01-07 21:10:00,31.0,25.3,30.15,South,173,11.0,14.0,79,0.00,,---,0.00,VWS V14.00,2013-01-08 03:10:00,
2013-01-07 21:15:00,31.2,25.1,30.15,South,176,6.0,12.0,78,0.00,,---,0.00,VWS V14.00,2013-01-08 03:15:00,
2013-01-07 21:21:00,31.0,25.3,30.15,South,176,11.0,11.0,79,0.00,,---,0.00,VWS V14.00,2013-01-08 03:21:00,
2013-01-07 21:26:00,31.2,25.5,30.15,South,174,12.0,15.0,79,0.00,,---,0.00,VWS V14.00,2013-01-08 03:26:00,
2013-01-07 21:31:00,31.2,25.1,30.15,South,174,11.0,11.0,78,0.00,,---,0.00,VWS V14.00,2013-01-08 03:31:00,
2013-01-07 21:36:00,31.5,25.4,30.15,South,176,7.0,14.0,78,0.00,,---,0.00,VWS V14.00,2013-01-08 03:36:00,
2013-01-07 21:41:00,31.5,25.4,30.15,South,169,10.0,10.0,78,0.00,,---,0.00,VWS V14.00,2013-01-08 03:41:00,
2013-01-07 21:46:00,31.5,25.4,30.14,South,171,11.0,13.0,78,0.00,,---,0.00,VWS V14.00,2013-01-08 03:46:00,
2013-01-07 21:51:00,31.3,25.2,30.14,South,170,11.0,12.0,78,0.00,,---,0.00,VWS V14.00,2013-01-08 03:51:00,
2013-01-07 21:56:00,31.3,25.2,30.14,SSE,168,15.0,15.0,78,0.00,,---,0.00,VWS V14.00,2013-01-08 03:56:00,
2013-01-07 22:02:00,31.3,25.2,30.14,SSE,168,11.0,12.0,78,0.00,,---,0.00,VWS V14.00,2013-01-08 04:02:00,
2013-01-07 22:07:00,31.3,25.2,30.14,SSE,167,10.0,13.0,78,0.00,,---,0.00,VWS V14.00,2013-01-08 04:07:00,
2013-01-07 22:12:00,31.3,25.2,30.14,South,169,12.0,12.0,78,0.00,,---,0.00,VWS V14.00,2013-01-08 04:12:00,
2013-01-07 22:17:00,31.2,25.1,30.14,South,171,14.0,14.0,78,0.00,,---,0.00,VWS V14.00,2013-01-08 04:17:00,
2013-01-07 22:22:00,31.2,25.1,30.14,South,171,10.0,12.0,78,0.00,,---,0.00,VWS V14.00,2013-01-08 04:22:00,
2013-01-07 22:27:00,31.2,24.5,30.14,South,169,9.0,10.0,76,0.00,,---,0.00,VWS V14.00,2013-01-08 04:27:00,
2013-01-07 22:32:00,31.0,25.0,30.13,South,169,8.0,8.0,78,0.00,,---,0.00,VWS V14.00,2013-01-08 04:32:00,
2013-01-07 22:37:00,31.2,25.1,30.13,South,172,13.0,14.0,78,0.00,,---,0.00,VWS V14.00,2013-01-08 04:37:00,
2013-01-07 22:42:00,31.2,25.1,30.13,South,172,10.0,10.0,78,0.00,,---,0.00,VWS V14.00,2013-01-08 04:42:00,
2013-01-07 22:47:00,31.0,25.3,30.14,South,175,8.0,11.0,79,0.00,,---,0.00,VWS V14.00,2013-01-08 04:47:00,
2013-01-07 22:53:00,30.9,25.2,30.14,South,175,7.0,14.0,79,0.00,,---,0.00,VWS V14.00,2013-01-08 04:53:00,
2013-01-07 22:58:00,30.7,25.0,30.14,South,176,9.0,12.0,79,0.00,,---,0.00,VWS V14.00,2013-01-08 04:58:00,
2013-01-07 23:00:00,30.7,25.0,30.14,South,176,7.0,10.0,79,0.00,,---,0.00,VWS V14.00,2013-01-08 05:00:00,
2013-01-07 23:01:00,30.7,25.0,30.14,South,176,6.0,11.0,79,0.00,,---,0.00,VWS V14.00,2013-01-08 05:01:00,
2013-01-07 23:02:00,30.7,25.0,30.14,South,176,7.0,9.0,79,0.00,,---,0.00,VWS V14.00,2013-01-08 05:02:00,
2013-01-07 23:03:00,30.6,24.9,30.14,South,176,5.0,11.0,79,0.00,,---,0.00,VWS V14.00,2013-01-08 05:03:00,
2013-01-07 23:08:00,30.4,25.0,30.14,South,176,5.0,8.0,80,0.00,,---,0.00,VWS V14.00,2013-01-08 05:08:00,
2013-01-07 23:13:00,30.3,24.9,30.14,South,176,6.0,8.0,80,0.00,,---,0.00,VWS V14.00,2013-01-08 05:13:00,
2013-01-07 23:18:00,30.3,24.9,30.14,South,176,8.0,8.0,80,0.00,,---,0.00,VWS V14.00,2013-01-08 05:18:00,
2013-01-07 23:23:00,30.4,24.7,30.14,South,177,9.0,12.0,79,0.00,,---,0.00,VWS V14.00,2013-01-08 05:23:00,
2013-01-07 23:29:00,30.4,24.7,30.14,South,177,7.0,11.0,79,0.00,,---,0.00,VWS V14.00,2013-01-08 05:29:00,
2013-01-07 23:34:00,30.4,25.0,30.14,South,177,12.0,12.0,80,0.00,,---,0.00,VWS V14.00,2013-01-08 05:34:00,
2013-01-07 23:39:00,30.6,24.9,30.14,South,177,9.0,12.0,79,0.00,,---,0.00,VWS V14.00,2013-01-08 05:39:00,
2013-01-07 23:44:00,30.4,24.7,30.14,South,177,10.0,12.0,79,0.00,,---,0.00,VWS V14.00,2013-01-08 05:44:00,
2013-01-07 23:49:00,30.4,25.0,30.13,South,178,11.0,13.0,80,0.00,,---,0.00,VWS V14.00,2013-01-08 05:49:00,
2013-01-07 23:54:00,30.3,24.6,30.13,South,178,8.0,11.0,79,0.00,,---,0.00,VWS V14.00,2013-01-08 05:54:00,
2013-01-07 23:59:00,30.3,24.9,30.13,South,178,7.0,10.0,80,0.00,,---,0.00,VWS V14.00,2013-01-08 05:59:00,